Search for airport 
image banner adimage banner adimage banner ad
image banner ad

3IA8 - Kah

Located in Keokuk, United States

ICAO - 3IA8, IATA -

Data provided by Airmate  

General information

Coordinates: N40°24'26" W91°23'17"
Elevation is 617 feet MSL.
Magnetic variation is 02° East
View others Airports in Iowa

Operational data

Special qualification required
Current time UTC:
Current local time:
Weather at : KEOK - Keokuk Muni ( 7 km )
METAR: KEOK 181755Z AUTO 30006KT 10SM CLR 29/23 A2982 RMK AO2
View NOTAMs / SUP AIP / TFR affecting this airport [VIEW]
Communications frequencies: [VIEW]

Runways:

Airport contact information

Address: Keokuk United States

Satellite view of 3IA8